Los Olivos, California
Current Conditions -  °F | °C
As of 10:15 AM on Tuesday 21 Oct 2014 (Local Time) from KIZA Reporting Station
Clear Clear  
Wind Chill: 63°   Ceiling: Unl
Heat Index: 63°   Visibility: 10mi
Dew Point: 52°   Wind: 3mph
Humidity: 68%   Direction: 210°SSW
Pressure: 29.98"   Gusts: NA
Location:  34.67°N, 120.12°W
Report Text: KIZA 211715Z AUTO 21003KT 10SM CLR 17/11 A2998 RMK AO2
Loading
Personal Weather Stations






























Interactive Weather Map
Tropical Storm Tracking
New forecast layout! Learn more

10-Day Weather Forecast

Advertisements
Track Severe Weather on mobile